Have a Safe July 4th! 

Flight Track Log - Related Links

Times and Time Zones

All times are in EDT time to prevent confusion due to time zone crossing. See the N6855V flight status page for this flight to view local times or setup timezone preferences in your user account.

Time Position Orientation Groundspeed Altitude Reporting Facility
EDT Latitude Longitude Course Direction KTS MPH feet Rate Location/Type
Mon 12:16:40 AM 44.0744 -123.1217 76° East 117 135 4,000  Level Seattle Center
Mon 12:17:40 AM 44.0817 -123.0794 77° East 114 131 4,700 744 Climbing Seattle Center
Mon 12:18:41 AM 44.1133 -123.0617 22° Northeast 126 145 5,500 744 Climbing Seattle Center
Mon 12:19:00 AM 44.1882 -122.9259 74° East  Level FlightAware Approximate
Mon 12:19:41 AM 44.1428 -123.0358 32° Northeast 126 145 6,200  Level Seattle Center
Mon 12:20:00 AM 44.1987 -122.8734 74° East  Level FlightAware Approximate
Mon 12:20:42 AM 44.1669 -122.9997 47° Northeast 127 146 6,700  Level Seattle Center
Mon 12:21:00 AM 44.2166 -122.8251 61° Northeast  Level FlightAware Approximate
Mon 12:21:43 AM 44.1900 -122.9619 50° Northeast 128 147 7,400  Level Seattle Center
Mon 12:22:43 AM 44.2058 -122.9194 63° Northeast 125 144 7,900 545 Climbing Seattle Center
Mon 12:23:44 AM 44.2189 -122.8750 68° East 126 145 8,500 492 Climbing Seattle Center
Mon 12:24:45 AM 44.2297 -122.8311 71° East 122 140 8,900 446 Climbing Seattle Center
Mon 12:25:45 AM 44.2428 -122.7806 70° East 117 135 9,400 496 Climbing Seattle Center
Mon 12:26:46 AM 44.2547 -122.7364 69° East 121 139 9,900 393 Climbing Seattle Center
Mon 12:27:47 AM 44.2675 -122.6897 69° East 128 147 10,200 397 Climbing Seattle Center
Mon 12:28:47 AM 44.2769 -122.6433 74° East 125 144 10,700 446 Climbing Seattle Center
Mon 12:29:48 AM 44.2900 -122.5972 68° East 127 146 11,100 295 Climbing Seattle Center
Mon 12:30:49 AM 44.3025 -122.5478 71° East 135 155 11,300 50 Climbing Seattle Center
Mon 12:31:49 AM 44.3178 -122.4900 70° East 157 181 11,200 -50 Descending Seattle Center
Mon 12:32:50 AM 44.3325 -122.4306 71° East 162 186 11,200 -49 Level Seattle Center
Mon 12:33:51 AM 44.3425 -122.3697 77° East 161 185 11,100 -50 Descending Seattle Center
Mon 12:34:51 AM 44.3597 -122.3117 67° East 163 188 11,100  Level Seattle Center
Mon 12:35:52 AM 44.3744 -122.2561 70° East 155 178 11,100  Level Seattle Center
Mon 12:36:53 AM 44.3942 -122.2025 63° Northeast 155 178 11,100  Level Seattle Center
Mon 12:37:53 AM 44.4117 -122.1419 68° East 165 190 11,100  Level Seattle Center
Mon 12:38:54 AM 44.4317 -122.0892 62° Northeast 157 181 11,100  Level Seattle Center
Mon 12:39:55 AM 44.4444 -122.0375 71° East 142 163 11,100  Level Seattle Center
Mon 12:40:55 AM 44.4536 -121.9836 77° East 143 165 11,100 50 Level Seattle Center
Mon 12:41:56 AM 44.4728 -121.9317 63° Northeast 148 170 11,200  Climbing Seattle Center
Mon 12:42:57 AM 44.4864 -121.8672 73° East 151 174 11,100 -99 Descending Seattle Center
Mon 12:43:57 AM 44.5003 -121.8158 69° East 142 163 11,000  Descending Seattle Center
Mon 12:44:58 AM 44.5119 -121.7628 73° East 142 163 11,100 98 Climbing Seattle Center
Mon 12:45:59 AM 44.5261 -121.7133 68° East 137 158 11,200 -248 Climbing Seattle Center
Mon 12:46:59 AM 44.5311 -121.6617 82° East 132 152 10,600 -496 Descending Seattle Center
Mon 12:48:00 AM 44.5478 -121.6119 65° Northeast 139 160 10,200 -443 Descending Seattle Center
Mon 12:49:01 AM 44.5622 -121.5617 68° East 141 162 9,700 -545 Descending Seattle Center
Mon 12:50:01 AM 44.5753 -121.5128 69° East 138 159 9,100 -744 Descending Seattle Center
Mon 12:51:02 AM 44.5900 -121.4569 70° East 150 173 8,200 -836 Descending Seattle Center
Mon 12:52:03 AM 44.6028 -121.3922 74° East 162 186 7,400 -787 Descending Seattle Center

Login

Don't have an account? Register now (free) for customized features, flight alerts, and more!